Time;durP1;ratioP1;P1;durP2;ratioP2;P2;SDS_P1;SDS_P2;PMS_P1;PMS_P2;Temp;Humidity;BMP_temperature;BMP_pressure;BME280_temperature;BME280_humidity;BME280_pressure;Samples;Min_cycle;Max_cycle;Signal;HPM_P1;HPM_P2
2021/12/02 00:01:11;;;;;;;1.03;0.40;;;;;;;;;;6276047;22;20177;-92
2021/12/02 00:03:41;;;;;;;0.20;0.20;;;;;;;;;;6274842;22;20179;-91
2021/12/02 00:06:09;;;;;;;0.20;0.20;;;;;;;;;;6275548;22;20203;-91
2021/12/02 00:08:36;;;;;;;0.23;0.23;;;;;;;;;;6275280;22;20200;-90
2021/12/02 00:11:04;;;;;;;0.20;0.20;;;;;;;;;;6276352;22;20180;-92
2021/12/02 00:13:39;;;;;;;0.30;0.30;;;;;;;;;;6274079;22;20689;-92
2021/12/02 00:16:18;;;;;;;1.73;0.40;;;;;;;;;;6275810;22;20604;-91
2021/12/02 00:21:31;;;;;;;1.10;0.20;;;;;;;;;;6274858;22;20175;-92
2021/12/02 00:24:03;;;;;;;0.93;0.27;;;;;;;;;;6275512;22;20564;-92
2021/12/02 00:26:31;;;;;;;0.20;0.10;;;;;;;;;;6275834;22;20172;-92
2021/12/02 00:29:00;;;;;;;1.20;0.40;;;;;;;;;;6275161;22;20255;-91
2021/12/02 00:31:29;;;;;;;0.20;0.20;;;;;;;;;;6274274;22;20181;-91
2021/12/02 00:33:59;;;;;;;0.10;0.10;;;;;;;;;;6275152;22;20177;-91
2021/12/02 00:36:27;;;;;;;1.17;0.23;;;;;;;;;;6275130;22;20809;-92
2021/12/02 00:38:55;;;;;;;0.40;0.40;;;;;;;;;;6274306;22;20823;-91
2021/12/02 00:41:22;;;;;;;0.30;0.30;;;;;;;;;;6275836;22;20177;-92
2021/12/02 00:43:51;;;;;;;1.50;0.40;;;;;;;;;;6275593;22;20184;-91
2021/12/02 00:46:20;;;;;;;0.20;0.20;;;;;;;;;;6274986;22;20180;-92
2021/12/02 00:48:47;;;;;;;0.10;0.10;;;;;;;;;;6275097;22;20196;-91
2021/12/02 00:51:16;;;;;;;0.20;0.20;;;;;;;;;;6275812;22;20417;-92
2021/12/02 00:53:46;;;;;;;0.53;0.27;;;;;;;;;;6275415;22;20176;-92
2021/12/02 00:56:14;;;;;;;0.30;0.10;;;;;;;;;;6274383;22;20196;-92
2021/12/02 00:58:43;;;;;;;0.20;0.20;;;;;;;;;;6275021;22;20215;-91
2021/12/02 01:01:10;;;;;;;0.27;0.27;;;;;;;;;;6275501;22;20207;-91
2021/12/02 01:03:38;;;;;;;0.20;0.20;;;;;;;;;;6275494;22;20238;-90
2021/12/02 01:06:06;;;;;;;0.20;0.20;;;;;;;;;;6274186;22;20574;-91
2021/12/02 01:08:36;;;;;;;0.20;0.20;;;;;;;;;;6274743;22;20196;-91
2021/12/02 01:11:03;;;;;;;0.10;0.10;;;;;;;;;;6275734;22;20177;-91
2021/12/02 01:13:30;;;;;;;0.20;0.20;;;;;;;;;;6275496;22;20551;-91
2021/12/02 01:15:58;;;;;;;0.30;0.30;;;;;;;;;;6274444;22;20183;-91
2021/12/02 01:18:25;;;;;;;0.30;0.30;;;;;;;;;;6275407;22;20200;-91
2021/12/02 01:20:53;;;;;;;0.30;0.30;;;;;;;;;;6275190;22;20230;-91
2021/12/02 01:23:21;;;;;;;0.27;0.27;;;;;;;;;;6275320;22;20179;-91
2021/12/02 01:25:51;;;;;;;1.70;0.37;;;;;;;;;;6274097;22;20551;-91
2021/12/02 01:28:19;;;;;;;0.20;0.20;;;;;;;;;;6274946;22;20197;-92
2021/12/02 01:30:47;;;;;;;1.07;0.40;;;;;;;;;;6275294;22;20631;-91
2021/12/02 01:33:15;;;;;;;0.10;0.10;;;;;;;;;;6275393;22;20176;-92
2021/12/02 01:35:44;;;;;;;0.20;0.20;;;;;;;;;;6272359;22;20238;-91
2021/12/02 01:41:16;;;;;;;0.30;0.30;;;;;;;;;;6274904;22;20198;-91
2021/12/02 01:43:45;;;;;;;0.30;0.30;;;;;;;;;;6276705;22;20226;-91
2021/12/02 01:46:13;;;;;;;1.60;0.40;;;;;;;;;;6276423;22;20180;-91
2021/12/02 01:48:41;;;;;;;0.30;0.30;;;;;;;;;;6277510;22;20196;-90
2021/12/02 01:51:11;;;;;;;0.10;0.10;;;;;;;;;;6277385;22;20181;-91
2021/12/02 01:53:39;;;;;;;0.20;0.20;;;;;;;;;;6275886;22;20184;-91
2021/12/02 01:56:09;;;;;;;0.50;0.17;;;;;;;;;;6276622;22;20181;-91
2021/12/02 01:58:42;;;;;;;0.97;0.40;;;;;;;;;;6277412;22;20192;-91
2021/12/02 02:01:15;;;;;;;0.20;0.20;;;;;;;;;;6275320;22;20176;-91
2021/12/02 02:03:43;;;;;;;0.77;0.30;;;;;;;;;;6276740;22;20271;-91
2021/12/02 02:06:10;;;;;;;1.30;0.30;;;;;;;;;;6277077;22;20279;-91
2021/12/02 02:08:39;;;;;;;0.10;0.10;;;;;;;;;;6275844;22;20196;-90
2021/12/02 02:11:08;;;;;;;1.20;0.30;;;;;;;;;;6276699;22;20230;-91
2021/12/02 02:13:36;;;;;;;0.20;0.20;;;;;;;;;;6277215;22;20184;-92
2021/12/02 02:16:04;;;;;;;0.20;0.20;;;;;;;;;;6277094;22;20180;-91
2021/12/02 02:18:32;;;;;;;0.20;0.20;;;;;;;;;;6275799;22;20200;-91
2021/12/02 02:21:02;;;;;;;0.30;0.30;;;;;;;;;;6277118;22;20207;-92
2021/12/02 02:23:31;;;;;;;0.57;0.30;;;;;;;;;;6277152;22;20555;-91
2021/12/02 02:25:58;;;;;;;0.20;0.20;;;;;;;;;;6276010;22;20172;-90
2021/12/02 02:28:26;;;;;;;0.60;0.30;;;;;;;;;;6276131;22;20749;-92
2021/12/02 02:30:53;;;;;;;0.47;0.30;;;;;;;;;;6276744;22;20579;-91
2021/12/02 02:33:22;;;;;;;0.20;0.20;;;;;;;;;;6276663;22;20176;-91
2021/12/02 02:35:49;;;;;;;1.03;0.30;;;;;;;;;;6276041;22;20179;-91
2021/12/02 02:38:20;;;;;;;0.40;0.30;;;;;;;;;;6275911;22;20200;-91
2021/12/02 02:40:49;;;;;;;0.13;0.13;;;;;;;;;;6276760;22;20165;-91
2021/12/02 02:43:22;;;;;;;0.10;0.10;;;;;;;;;;6275463;22;20187;-91
2021/12/02 02:45:49;;;;;;;0.20;0.20;;;;;;;;;;6276514;22;20169;-92
2021/12/02 02:48:16;;;;;;;0.30;0.30;;;;;;;;;;6276603;22;20247;-91
2021/12/02 02:50:44;;;;;;;0.20;0.20;;;;;;;;;;6275655;22;20292;-90
2021/12/02 02:53:15;;;;;;;2.33;0.40;;;;;;;;;;6276536;22;20239;-92
2021/12/02 02:55:49;;;;;;;0.30;0.30;;;;;;;;;;6276743;22;20185;-91
2021/12/02 02:58:25;;;;;;;0.20;0.20;;;;;;;;;;6275043;22;20196;-92
2021/12/02 03:01:00;;;;;;;0.43;0.43;;;;;;;;;;6276799;22;20169;-92
2021/12/02 03:03:30;;;;;;;0.23;0.23;;;;;;;;;;6276311;22;20202;-91
2021/12/02 03:06:10;;;;;;;0.40;0.40;;;;;;;;;;6275619;22;20215;-91
2021/12/02 03:08:43;;;;;;;1.27;0.47;;;;;;;;;;6272654;22;20212;-91
2021/12/02 03:11:13;;;;;;;1.13;0.60;;;;;;;;;;6276430;22;20195;-92
2021/12/02 03:13:46;;;;;;;0.70;0.20;;;;;;;;;;6274859;22;20658;-90
2021/12/02 03:18:58;;;;;;;0.50;0.40;;;;;;;;;;6276256;22;20310;-91
2021/12/02 03:21:26;;;;;;;0.37;0.37;;;;;;;;;;6275612;22;20201;-91
2021/12/02 03:23:54;;;;;;;0.30;0.30;;;;;;;;;;6275174;22;20177;-92
2021/12/02 03:26:23;;;;;;;0.30;0.30;;;;;;;;;;6276163;22;20173;-91
2021/12/02 03:28:51;;;;;;;0.20;0.20;;;;;;;;;;6276408;22;20200;-91
2021/12/02 03:31:19;;;;;;;0.33;0.33;;;;;;;;;;6275938;22;20181;-91
2021/12/02 03:33:46;;;;;;;0.53;0.43;;;;;;;;;;6275805;22;20226;-92
2021/12/02 03:36:14;;;;;;;0.57;0.50;;;;;;;;;;6276122;22;20227;-92
2021/12/02 03:38:41;;;;;;;0.20;0.20;;;;;;;;;;6276450;22;20197;-92
2021/12/02 03:41:09;;;;;;;0.30;0.30;;;;;;;;;;6275741;22;20180;-92
2021/12/02 03:43:38;;;;;;;0.30;0.30;;;;;;;;;;6275360;22;20503;-91
2021/12/02 03:46:06;;;;;;;1.13;0.20;;;;;;;;;;6276198;22;20234;-91
2021/12/02 03:48:35;;;;;;;0.30;0.30;;;;;;;;;;6276271;22;20371;-91
2021/12/02 03:51:03;;;;;;;0.67;0.20;;;;;;;;;;6275346;22;20647;-92
2021/12/02 03:53:30;;;;;;;0.27;0.20;;;;;;;;;;6275862;22;20179;-92
2021/12/02 03:55:57;;;;;;;1.60;0.50;;;;;;;;;;6275825;22;20722;-90
2021/12/02 03:58:25;;;;;;;0.27;0.27;;;;;;;;;;6274665;22;20201;-91
2021/12/02 04:00:53;;;;;;;0.33;0.27;;;;;;;;;;6275976;22;20172;-91
2021/12/02 04:03:21;;;;;;;0.40;0.40;;;;;;;;;;6275796;22;20173;-91
2021/12/02 04:05:48;;;;;;;0.40;0.40;;;;;;;;;;6275995;22;20184;-91
2021/12/02 04:08:16;;;;;;;0.67;0.30;;;;;;;;;;6274614;22;20655;-92
2021/12/02 04:10:44;;;;;;;1.17;0.40;;;;;;;;;;6276125;22;20215;-91
2021/12/02 04:13:26;;;;;;;0.20;0.20;;;;;;;;;;6275848;22;20177;-92
2021/12/02 04:15:59;;;;;;;0.33;0.33;;;;;;;;;;6274986;22;20650;-92
2021/12/02 04:18:26;;;;;;;0.27;0.27;;;;;;;;;;6275921;22;20197;-91
2021/12/02 04:20:54;;;;;;;0.30;0.30;;;;;;;;;;6276145;22;20188;-92
2021/12/02 04:23:21;;;;;;;0.33;0.33;;;;;;;;;;6274888;22;20176;-91
2021/12/02 04:25:48;;;;;;;2.10;0.20;;;;;;;;;;6275757;22;20177;-92
2021/12/02 04:28:16;;;;;;;0.10;0.10;;;;;;;;;;6275241;22;20196;-91
2021/12/02 04:30:43;;;;;;;0.40;0.27;;;;;;;;;;6275735;22;20242;-91
2021/12/02 04:33:12;;;;;;;0.73;0.50;;;;;;;;;;6274850;22;20180;-91
2021/12/02 04:35:39;;;;;;;0.80;0.40;;;;;;;;;;6275536;22;20230;-91
2021/12/02 04:38:06;;;;;;;0.47;0.30;;;;;;;;;;6275278;22;20679;-91
2021/12/02 04:40:36;;;;;;;0.10;0.10;;;;;;;;;;6274819;22;20242;-91
2021/12/02 04:43:03;;;;;;;0.23;0.20;;;;;;;;;;6275325;22;20177;-90
2021/12/02 04:45:30;;;;;;;0.10;0.10;;;;;;;;;;6275444;22;20176;-91
2021/12/02 04:47:58;;;;;;;0.30;0.30;;;;;;;;;;6274991;22;20193;-91
2021/12/02 04:50:26;;;;;;;0.30;0.30;;;;;;;;;;6275633;22;20887;-91
2021/12/02 04:52:54;;;;;;;0.30;0.30;;;;;;;;;;6275555;22;20184;-91
2021/12/02 04:55:21;;;;;;;1.20;0.40;;;;;;;;;;6275134;22;20188;-91
2021/12/02 04:57:49;;;;;;;0.40;0.40;;;;;;;;;;6274986;22;20183;-91
2021/12/02 05:00:17;;;;;;;1.27;0.33;;;;;;;;;;6275376;22;20627;-91
2021/12/02 05:02:45;;;;;;;0.30;0.30;;;;;;;;;;6275717;22;20253;-90
2021/12/02 05:05:13;;;;;;;0.20;0.20;;;;;;;;;;6274730;22;20243;-91
2021/12/02 05:07:41;;;;;;;0.33;0.33;;;;;;;;;;6273866;22;20180;-90
2021/12/02 05:10:09;;;;;;;0.30;0.30;;;;;;;;;;6275299;22;20596;-91
2021/12/02 05:12:36;;;;;;;0.33;0.33;;;;;;;;;;6274609;22;20176;-91
2021/12/02 05:15:04;;;;;;;2.17;0.53;;;;;;;;;;6274952;22;20616;-91
2021/12/02 05:17:31;;;;;;;0.30;0.30;;;;;;;;;;6270429;22;20561;-91
2021/12/02 05:19:59;;;;;;;0.80;0.50;;;;;;;;;;6274756;22;20172;-91
2021/12/02 05:22:26;;;;;;;3.00;0.53;;;;;;;;;;6274143;22;20700;-91
2021/12/02 05:24:55;;;;;;;0.40;0.40;;;;;;;;;;6275424;22;20230;-91
2021/12/02 05:27:22;;;;;;;0.30;0.30;;;;;;;;;;6273900;22;20716;-91
2021/12/02 05:29:49;;;;;;;0.83;0.50;;;;;;;;;;6274546;22;20200;-92
2021/12/02 05:32:17;;;;;;;0.57;0.53;;;;;;;;;;6275616;22;20177;-91
2021/12/02 05:34:47;;;;;;;0.43;0.43;;;;;;;;;;6275790;22;20176;-91
2021/12/02 05:37:14;;;;;;;0.50;0.50;;;;;;;;;;6273800;22;20222;-90
2021/12/02 05:39:41;;;;;;;1.27;0.60;;;;;;;;;;6275273;22;20195;-91
2021/12/02 05:42:11;;;;;;;0.40;0.40;;;;;;;;;;6275384;22;20202;-92
2021/12/02 05:44:40;;;;;;;0.33;0.33;;;;;;;;;;6272419;22;20242;-92
2021/12/02 05:47:17;;;;;;;0.37;0.37;;;;;;;;;;6274632;22;20206;-93
2021/12/02 05:49:44;;;;;;;0.97;0.60;;;;;;;;;;6275171;22;20195;-92
2021/12/02 05:52:12;;;;;;;1.17;0.67;;;;;;;;;;6275476;22;20173;-92
2021/12/02 05:54:39;;;;;;;0.93;0.50;;;;;;;;;;6273747;22;20357;-92
2021/12/02 05:57:07;;;;;;;0.63;0.63;;;;;;;;;;6274678;22;20172;-92
2021/12/02 05:59:35;;;;;;;2.33;0.73;;;;;;;;;;6274967;22;20196;-91
2021/12/02 06:02:05;;;;;;;0.50;0.50;;;;;;;;;;6274206;22;20173;-93
2021/12/02 06:04:32;;;;;;;2.10;0.60;;;;;;;;;;6274697;22;20248;-92
2021/12/02 06:07:00;;;;;;;0.60;0.43;;;;;;;;;;6275269;22;20176;-92
2021/12/02 06:09:27;;;;;;;4.30;0.67;;;;;;;;;;6274145;22;20449;-92
2021/12/02 06:11:54;;;;;;;0.37;0.37;;;;;;;;;;6275066;22;20192;-92
2021/12/02 06:14:22;;;;;;;1.47;0.70;;;;;;;;;;6275284;22;20563;-92
2021/12/02 06:16:50;;;;;;;1.10;0.63;;;;;;;;;;6275167;22;20176;-92
2021/12/02 06:19:18;;;;;;;3.27;0.50;;;;;;;;;;6274425;22;20254;-92
2021/12/02 06:21:45;;;;;;;1.07;0.60;;;;;;;;;;6275275;22;20173;-92
2021/12/02 06:24:14;;;;;;;0.33;0.33;;;;;;;;;;6275266;22;20808;-92
2021/12/02 06:26:41;;;;;;;1.73;0.40;;;;;;;;;;6273554;22;20255;-92
2021/12/02 06:29:09;;;;;;;0.20;0.20;;;;;;;;;;6275351;22;20216;-92
2021/12/02 06:31:36;;;;;;;0.40;0.40;;;;;;;;;;6277090;22;20207;-92
2021/12/02 06:34:06;;;;;;;0.23;0.23;;;;;;;;;;6276912;22;20478;-92
2021/12/02 06:36:36;;;;;;;0.90;0.60;;;;;;;;;;6275623;22;20174;-93
2021/12/02 06:39:04;;;;;;;1.50;0.30;;;;;;;;;;6276545;22;20227;-92
2021/12/02 06:41:31;;;;;;;0.63;0.30;;;;;;;;;;6277111;22;20176;-93
2021/12/02 06:43:58;;;;;;;0.33;0.33;;;;;;;;;;6275728;22;20180;-92
2021/12/02 06:46:28;;;;;;;1.10;0.40;;;;;;;;;;6276646;22;20180;-92
2021/12/02 06:48:55;;;;;;;0.93;0.37;;;;;;;;;;6277251;22;20192;-92
2021/12/02 06:51:24;;;;;;;0.30;0.30;;;;;;;;;;6275924;22;20189;-92
2021/12/02 06:53:52;;;;;;;1.73;0.50;;;;;;;;;;6274816;22;20211;-93
2021/12/02 06:56:19;;;;;;;0.57;0.57;;;;;;;;;;6276614;22;20256;-92
2021/12/02 06:58:46;;;;;;;0.50;0.50;;;;;;;;;;6284019;22;20193;-92
2021/12/02 07:01:14;;;;;;;1.80;0.60;;;;;;;;;;6275429;22;20179;-92
2021/12/02 07:03:41;;;;;;;0.40;0.40;;;;;;;;;;6276173;22;20250;-92
2021/12/02 07:06:08;;;;;;;2.00;0.70;;;;;;;;;;6276704;22;20177;-92
2021/12/02 07:08:37;;;;;;;1.23;0.70;;;;;;;;;;6275987;22;20196;-92
2021/12/02 07:11:07;;;;;;;0.40;0.40;;;;;;;;;;6276468;22;20196;-93
2021/12/02 07:13:36;;;;;;;0.63;0.60;;;;;;;;;;6276467;22;20723;-93
2021/12/02 07:16:04;;;;;;;5.20;0.90;;;;;;;;;;6276907;22;20177;-92
2021/12/02 07:18:38;;;;;;;0.73;0.70;;;;;;;;;;6279243;22;20219;-92
2021/12/02 07:21:05;;;;;;;2.07;0.63;;;;;;;;;;6275897;22;20623;-92
2021/12/02 07:23:32;;;;;;;0.70;0.70;;;;;;;;;;6275962;22;20184;-92
2021/12/02 07:26:02;;;;;;;0.67;0.67;;;;;;;;;;6277961;22;20176;-92
2021/12/02 07:28:34;;;;;;;1.13;0.80;;;;;;;;;;6278672;22;20196;-92
2021/12/02 07:31:03;;;;;;;1.03;0.70;;;;;;;;;;6276574;22;20212;-93
2021/12/02 07:33:30;;;;;;;0.87;0.83;;;;;;;;;;6276724;22;20248;-92
2021/12/02 07:35:57;;;;;;;0.80;0.80;;;;;;;;;;6274796;22;20173;-91
2021/12/02 07:38:26;;;;;;;0.60;0.60;;;;;;;;;;6275694;22;20258;-92
2021/12/02 07:40:54;;;;;;;1.40;0.93;;;;;;;;;;6275401;22;20180;-92
2021/12/02 07:43:23;;;;;;;0.93;0.87;;;;;;;;;;6276269;22;20197;-92
2021/12/02 07:45:50;;;;;;;0.93;0.87;;;;;;;;;;6274037;22;20183;-91
2021/12/02 07:48:18;;;;;;;0.77;0.77;;;;;;;;;;6275676;22;20197;-92
2021/12/02 07:50:45;;;;;;;1.23;0.90;;;;;;;;;;6275584;22;20197;-92
2021/12/02 07:53:14;;;;;;;2.20;1.00;;;;;;;;;;6274890;22;20177;-93
2021/12/02 07:55:42;;;;;;;2.70;0.90;;;;;;;;;;6275740;22;20259;-91
2021/12/02 07:58:10;;;;;;;1.00;0.80;;;;;;;;;;6275340;22;20204;-92
2021/12/02 08:00:39;;;;;;;1.37;1.10;;;;;;;;;;6276795;22;20177;-92
2021/12/02 08:03:08;;;;;;;2.30;0.80;;;;;;;;;;6274340;22;20172;-92
2021/12/02 08:05:36;;;;;;;2.03;0.90;;;;;;;;;;6275788;22;20172;-92
2021/12/02 08:08:04;;;;;;;0.77;0.77;;;;;;;;;;6275182;22;20510;-92
2021/12/02 08:10:31;;;;;;;1.30;0.83;;;;;;;;;;6275297;22;20173;-92
2021/12/02 08:13:00;;;;;;;1.40;0.80;;;;;;;;;;6275509;22;20250;-92
2021/12/02 08:15:28;;;;;;;2.30;1.00;;;;;;;;;;6275954;22;20226;-92
2021/12/02 08:17:57;;;;;;;1.43;1.30;;;;;;;;;;6275783;22;20214;-92
2021/12/02 08:20:25;;;;;;;0.90;0.90;;;;;;;;;;6275511;22;20177;-92
2021/12/02 08:22:53;;;;;;;1.17;0.80;;;;;;;;;;6275740;22;20627;-92
2021/12/02 08:25:21;;;;;;;1.50;0.93;;;;;;;;;;6275710;22;20180;-92
2021/12/02 08:27:48;;;;;;;0.80;0.80;;;;;;;;;;6275681;22;20188;-92
2021/12/02 08:30:16;;;;;;;0.73;0.73;;;;;;;;;;6275257;22;20176;-92
2021/12/02 08:32:45;;;;;;;1.00;0.90;;;;;;;;;;6275959;22;20202;-92
2021/12/02 08:35:15;;;;;;;3.10;1.20;;;;;;;;;;6278258;22;20176;-92
2021/12/02 08:37:44;;;;;;;2.57;1.20;;;;;;;;;;6297970;22;20351;-89
2021/12/02 08:40:12;;;;;;;1.40;1.10;;;;;;;;;;6302656;22;20165;-90
2021/12/02 08:42:39;;;;;;;0.97;0.97;;;;;;;;;;6285591;22;20173;-92
2021/12/02 08:45:07;;;;;;;1.53;0.80;;;;;;;;;;6276462;22;20177;-92
2021/12/02 08:47:42;;;;;;;1.33;1.03;;;;;;;;;;6274289;22;20668;-92
2021/12/02 08:50:10;;;;;;;2.40;0.97;;;;;;;;;;6275653;22;20246;-92
2021/12/02 08:52:39;;;;;;;0.87;0.87;;;;;;;;;;6275351;22;20192;-92
2021/12/02 08:55:07;;;;;;;0.80;0.80;;;;;;;;;;6275111;22;20568;-90
2021/12/02 08:57:37;;;;;;;1.47;1.10;;;;;;;;;;6274991;22;20184;-92
2021/12/02 09:00:06;;;;;;;0.80;0.80;;;;;;;;;;6275681;22;20179;-92
2021/12/02 09:02:33;;;;;;;1.80;0.90;;;;;;;;;;6275723;22;20176;-92
2021/12/02 09:05:01;;;;;;;0.80;0.80;;;;;;;;;;6274579;22;20643;-91
2021/12/02 09:07:28;;;;;;;4.33;1.10;;;;;;;;;;6274857;22;20176;-92
2021/12/02 09:09:57;;;;;;;1.30;1.13;;;;;;;;;;6275072;22;20196;-92
2021/12/02 09:12:25;;;;;;;2.03;0.73;;;;;;;;;;6275056;22;20274;-92
2021/12/02 09:14:52;;;;;;;1.80;1.30;;;;;;;;;;6274127;22;20177;-92
2021/12/02 09:17:20;;;;;;;1.87;1.33;;;;;;;;;;6274944;22;20230;-92
2021/12/02 09:19:48;;;;;;;1.77;0.90;;;;;;;;;;6274938;22;20250;-92
2021/12/02 09:22:15;;;;;;;1.23;0.90;;;;;;;;;;6275469;22;20619;-92
2021/12/02 09:24:42;;;;;;;2.93;1.10;;;;;;;;;;6274557;22;20177;-92
2021/12/02 09:27:11;;;;;;;1.27;1.07;;;;;;;;;;6274787;22;20199;-92
2021/12/02 09:29:38;;;;;;;2.33;1.30;;;;;;;;;;6275722;22;20197;-92
2021/12/02 09:32:06;;;;;;;3.03;1.30;;;;;;;;;;6275472;22;20529;-91
2021/12/02 09:34:33;;;;;;;1.00;0.90;;;;;;;;;;6274495;22;20226;-91
2021/12/02 09:37:01;;;;;;;0.97;0.87;;;;;;;;;;6274942;22;20172;-92
2021/12/02 09:39:29;;;;;;;2.53;0.83;;;;;;;;;;6275467;22;20196;-92
2021/12/02 09:41:56;;;;;;;0.77;0.77;;;;;;;;;;6274323;22;20174;-92
2021/12/02 09:44:25;;;;;;;3.03;1.00;;;;;;;;;;6275304;22;20177;-92
2021/12/02 09:46:54;;;;;;;1.10;0.90;;;;;;;;;;6274879;22;20173;-92
2021/12/02 09:49:21;;;;;;;2.53;0.70;;;;;;;;;;6275341;22;20196;-92
2021/12/02 09:52:01;;;;;;;1.20;0.77;;;;;;;;;;6273916;22;20189;-91
2021/12/02 09:54:31;;;;;;;0.70;0.70;;;;;;;;;;6275131;22;20169;-91
2021/12/02 09:57:01;;;;;;;3.03;0.83;;;;;;;;;;6275116;22;20168;-91
2021/12/02 09:59:34;;;;;;;0.60;0.60;;;;;;;;;;6275672;22;20717;-89
2021/12/02 10:02:04;;;;;;;1.00;0.80;;;;;;;;;;6274794;22;20167;-92
2021/12/02 10:04:33;;;;;;;1.30;0.70;;;;;;;;;;6276821;22;20183;-91
2021/12/02 10:07:08;;;;;;;0.90;0.60;;;;;;;;;;6277421;22;20173;-91
2021/12/02 10:09:41;;;;;;;1.00;0.60;;;;;;;;;;6276127;22;20226;-92
2021/12/02 10:12:14;;;;;;;1.03;0.63;;;;;;;;;;6277160;22;20196;-91
2021/12/02 10:14:50;;;;;;;0.60;0.53;;;;;;;;;;6277616;22;20172;-92
2021/12/02 10:17:21;;;;;;;0.60;0.60;;;;;;;;;;6276006;22;20235;-91
2021/12/02 10:20:01;;;;;;;2.20;0.50;;;;;;;;;;6276857;22;20193;-92
2021/12/02 10:22:29;;;;;;;1.37;0.60;;;;;;;;;;6277393;22;20173;-92
2021/12/02 10:24:56;;;;;;;1.17;0.97;;;;;;;;;;6275861;22;20547;-91
2021/12/02 10:27:23;;;;;;;0.77;0.70;;;;;;;;;;6276196;22;20183;-91
2021/12/02 10:29:52;;;;;;;4.07;0.97;;;;;;;;;;6276514;22;20197;-91
2021/12/02 10:32:21;;;;;;;1.83;0.87;;;;;;;;;;6276809;22;20196;-92
2021/12/02 10:34:51;;;;;;;0.43;0.43;;;;;;;;;;6275171;22;20227;-91
2021/12/02 10:37:19;;;;;;;0.87;0.70;;;;;;;;;;6276552;22;20173;-91
2021/12/02 10:39:55;;;;;;;0.83;0.83;;;;;;;;;;6277092;22;20193;-91
2021/12/02 10:42:23;;;;;;;0.53;0.53;;;;;;;;;;6275851;22;20175;-92
2021/12/02 10:44:54;;;;;;;2.23;0.63;;;;;;;;;;6276622;22;20234;-92
2021/12/02 10:47:22;;;;;;;1.33;0.70;;;;;;;;;;6276846;22;20226;-92
2021/12/02 10:49:51;;;;;;;0.67;0.50;;;;;;;;;;6275753;22;20196;-93
2021/12/02 10:52:19;;;;;;;0.20;0.20;;;;;;;;;;6276871;22;20192;-93
2021/12/02 10:54:48;;;;;;;0.30;0.30;;;;;;;;;;6277002;22;20173;-93
2021/12/02 10:57:17;;;;;;;0.43;0.43;;;;;;;;;;6277130;22;20263;-93
2021/12/02 10:59:47;;;;;;;0.47;0.40;;;;;;;;;;6275793;22;20192;-93
2021/12/02 11:02:21;;;;;;;1.13;0.50;;;;;;;;;;6276921;22;20520;-92
2021/12/02 11:04:49;;;;;;;0.37;0.37;;;;;;;;;;6276827;22;20180;-93
2021/12/02 11:07:21;;;;;;;1.07;0.80;;;;;;;;;;6276899;22;20539;-92
2021/12/02 11:09:50;;;;;;;0.50;0.50;;;;;;;;;;6276715;22;20242;-93
2021/12/02 11:12:19;;;;;;;1.83;0.77;;;;;;;;;;6276935;22;20193;-93
2021/12/02 11:14:54;;;;;;;0.70;0.60;;;;;;;;;;6276722;22;20177;-93
2021/12/02 11:17:23;;;;;;;0.47;0.47;;;;;;;;;;6275836;22;20482;-93
2021/12/02 11:19:51;;;;;;;0.70;0.70;;;;;;;;;;6276578;22;20204;-93
2021/12/02 11:22:19;;;;;;;1.80;0.70;;;;;;;;;;6276667;22;20172;-92
2021/12/02 11:24:47;;;;;;;1.10;0.77;;;;;;;;;;6276000;22;20181;-93
2021/12/02 11:27:16;;;;;;;4.93;0.80;;;;;;;;;;6276679;22;20196;-93
2021/12/02 11:29:47;;;;;;;0.60;0.57;;;;;;;;;;6276627;22;20262;-93
2021/12/02 11:32:30;;;;;;;0.40;0.40;;;;;;;;;;6276567;22;20189;-93
2021/12/02 11:35:01;;;;;;;0.73;0.67;;;;;;;;;;6275771;22;20237;-93
2021/12/02 11:37:29;;;;;;;0.27;0.20;;;;;;;;;;6276012;22;20635;-93
2021/12/02 11:39:58;;;;;;;1.43;0.80;;;;;;;;;;6276172;22;20192;-93
2021/12/02 11:42:25;;;;;;;1.50;0.47;;;;;;;;;;6276036;22;20180;-92
2021/12/02 11:44:52;;;;;;;0.50;0.50;;;;;;;;;;6276222;22;20172;-93
2021/12/02 11:47:20;;;;;;;0.50;0.50;;;;;;;;;;6276405;22;20230;-93
2021/12/02 11:49:49;;;;;;;0.33;0.33;;;;;;;;;;6275642;22;20586;-93
2021/12/02 11:52:16;;;;;;;0.70;0.70;;;;;;;;;;6275407;22;20270;-93
2021/12/02 11:54:44;;;;;;;0.50;0.50;;;;;;;;;;6276007;22;20197;-92
2021/12/02 11:57:11;;;;;;;0.50;0.50;;;;;;;;;;6276520;22;20179;-93
2021/12/02 11:59:38;;;;;;;0.30;0.30;;;;;;;;;;6276059;22;20197;-93
2021/12/02 12:02:06;;;;;;;0.23;0.10;;;;;;;;;;6275983;22;20172;-93
2021/12/02 12:04:38;;;;;;;0.90;0.60;;;;;;;;;;6276121;22;20173;-93
2021/12/02 12:07:13;;;;;;;1.00;0.60;;;;;;;;;;6275886;22;20489;-93
2021/12/02 12:09:41;;;;;;;0.60;0.60;;;;;;;;;;6275757;22;20196;-93
2021/12/02 12:12:10;;;;;;;0.40;0.40;;;;;;;;;;6275816;22;20193;-93
2021/12/02 12:14:38;;;;;;;0.60;0.60;;;;;;;;;;6276551;22;20255;-93
2021/12/02 12:17:07;;;;;;;0.60;0.60;;;;;;;;;;6276510;22;20223;-93
2021/12/02 12:19:39;;;;;;;0.73;0.60;;;;;;;;;;6275267;22;20192;-93
2021/12/02 12:22:08;;;;;;;0.70;0.70;;;;;;;;;;6276173;22;20168;-93
2021/12/02 12:24:44;;;;;;;11.50;5.27;;;;;;;;;;6275391;22;20173;-92
2021/12/02 12:27:13;;;;;;;5.23;3.33;;;;;;;;;;6275022;22;20202;-92
2021/12/02 12:29:40;;;;;;;2.13;1.47;;;;;;;;;;6275899;22;20196;-92
2021/12/02 12:35:23;;;;;;;1.63;0.70;;;;;;;;;;6269670;22;20248;-92
2021/12/02 12:40:53;;;;;;;0.50;0.50;;;;;;;;;;6269551;22;20161;-93
2021/12/02 12:43:22;;;;;;;0.70;0.70;;;;;;;;;;6270115;22;20168;-93
2021/12/02 12:45:50;;;;;;;0.60;0.60;;;;;;;;;;6269607;22;20225;-92
2021/12/02 12:48:28;;;;;;;0.67;0.50;;;;;;;;;;6271794;22;20291;-93
2021/12/02 12:50:55;;;;;;;1.33;0.70;;;;;;;;;;6281395;22;20191;-92
2021/12/02 12:53:35;;;;;;;1.03;0.90;;;;;;;;;;6277029;22;20557;-93
2021/12/02 12:56:06;;;;;;;0.90;0.80;;;;;;;;;;6276414;22;20188;-92
2021/12/02 12:58:34;;;;;;;0.80;0.80;;;;;;;;;;6276266;22;20201;-93
2021/12/02 13:01:02;;;;;;;0.80;0.80;;;;;;;;;;6276376;22;20187;-92
2021/12/02 13:03:31;;;;;;;1.17;1.00;;;;;;;;;;6275210;22;20177;-93
2021/12/02 13:06:06;;;;;;;1.10;0.90;;;;;;;;;;6284111;22;20177;-93
2021/12/02 13:08:37;;;;;;;0.93;0.93;;;;;;;;;;6276082;22;20192;-93
2021/12/02 13:11:12;;;;;;;1.03;0.90;;;;;;;;;;6276386;22;20504;-93
2021/12/02 13:13:40;;;;;;;0.50;0.50;;;;;;;;;;6276353;22;20223;-93
2021/12/02 13:16:12;;;;;;;0.40;0.40;;;;;;;;;;6280202;22;20184;-93
2021/12/02 13:18:46;;;;;;;1.20;1.00;;;;;;;;;;6293675;22;20196;-93
2021/12/02 13:21:20;;;;;;;0.90;0.90;;;;;;;;;;6288056;22;20176;-94
2021/12/02 13:23:55;;;;;;;1.03;0.80;;;;;;;;;;6277035;22;20172;-93
2021/12/02 13:26:25;;;;;;;1.00;1.00;;;;;;;;;;6277087;22;20180;-93
2021/12/02 13:28:54;;;;;;;0.73;0.60;;;;;;;;;;6277087;22;20219;-93
2021/12/02 13:31:23;;;;;;;1.27;1.03;;;;;;;;;;6274944;22;20177;-93
2021/12/02 13:33:52;;;;;;;1.30;1.20;;;;;;;;;;6275876;22;20192;-93
2021/12/02 13:36:20;;;;;;;1.87;1.03;;;;;;;;;;6276054;22;20248;-93
2021/12/02 13:42:00;;;;;;;1.00;1.00;;;;;;;;;;6277845;22;20143;-93
2021/12/02 13:44:28;;;;;;;1.60;0.90;;;;;;;;;;6278267;22;20171;-93
2021/12/02 13:46:58;;;;;;;1.40;0.80;;;;;;;;;;6278402;22;20173;-93
2021/12/02 13:49:32;;;;;;;1.57;0.97;;;;;;;;;;6278213;22;20212;-93
2021/12/02 13:52:20;;;;;;;1.30;1.20;;;;;;;;;;6278299;22;20172;-93
2021/12/02 13:54:50;;;;;;;1.20;1.20;;;;;;;;;;6277962;22;20177;-93
2021/12/02 13:57:27;;;;;;;1.90;1.17;;;;;;;;;;6278414;22;20210;-93
2021/12/02 13:59:55;;;;;;;0.83;0.83;;;;;;;;;;6277918;22;20192;-93
2021/12/02 14:02:23;;;;;;;1.33;1.23;;;;;;;;;;6278275;22;20658;-93
2021/12/02 14:04:51;;;;;;;1.40;1.30;;;;;;;;;;6278027;22;20172;-93
2021/12/02 14:07:20;;;;;;;1.67;1.53;;;;;;;;;;6278113;22;20239;-93
2021/12/02 14:09:49;;;;;;;1.47;1.37;;;;;;;;;;6277919;22;20192;-93
2021/12/02 14:12:16;;;;;;;1.60;1.30;;;;;;;;;;6277913;22;20173;-93
2021/12/02 14:15:06;;;;;;;1.33;1.23;;;;;;;;;;6277577;22;20176;-93
2021/12/02 14:17:34;;;;;;;1.70;1.60;;;;;;;;;;6277550;22;20180;-93
2021/12/02 14:20:09;;;;;;;1.37;1.27;;;;;;;;;;6277331;22;20177;-93
2021/12/02 14:22:38;;;;;;;1.40;1.30;;;;;;;;;;6277723;22;20164;-93
2021/12/02 14:25:06;;;;;;;1.60;1.40;;;;;;;;;;6277131;22;20238;-93
2021/12/02 14:27:34;;;;;;;1.50;1.40;;;;;;;;;;6277277;22;20203;-93
2021/12/02 14:30:21;;;;;;;5.07;1.53;;;;;;;;;;6277734;22;20553;-92
2021/12/02 14:32:49;;;;;;;1.80;1.50;;;;;;;;;;6277646;22;20238;-93
2021/12/02 14:35:18;;;;;;;1.97;1.87;;;;;;;;;;6277207;22;20193;-93
2021/12/02 14:37:48;;;;;;;0.87;0.87;;;;;;;;;;6277079;22;20176;-93
2021/12/02 14:40:35;;;;;;;1.30;1.20;;;;;;;;;;6277598;22;20173;-93
2021/12/02 14:43:32;;;;;;;1.40;0.80;;;;;;;;;;6277551;22;20169;-93
2021/12/02 14:46:15;;;;;;;0.90;0.90;;;;;;;;;;6277437;22;20195;-93
2021/12/02 14:48:43;;;;;;;1.63;1.03;;;;;;;;;;6276956;22;20542;-92
2021/12/02 14:51:12;;;;;;;1.00;1.00;;;;;;;;;;6277141;22;20783;-92
2021/12/02 14:56:49;;;;;;;0.90;0.90;;;;;;;;;;6276715;22;20181;-91
2021/12/02 14:59:46;;;;;;;1.10;1.10;;;;;;;;;;6276333;22;20201;-91
2021/12/02 15:02:19;;;;;;;0.90;0.90;;;;;;;;;;6276331;22;20184;-92
2021/12/02 15:04:50;;;;;;;1.80;1.30;;;;;;;;;;6276860;22;20169;-91
2021/12/02 15:07:20;;;;;;;1.90;1.03;;;;;;;;;;6276811;22;20635;-91
2021/12/02 15:09:48;;;;;;;1.00;0.90;;;;;;;;;;6275782;22;20203;-91
2021/12/02 15:12:17;;;;;;;0.80;0.80;;;;;;;;;;6276426;22;20176;-91
2021/12/02 15:14:45;;;;;;;1.10;1.00;;;;;;;;;;6276636;22;20192;-91
2021/12/02 15:17:15;;;;;;;1.43;1.17;;;;;;;;;;6277029;22;20181;-91